Friday, July 25, 2014
12:53 UTC
  |  Log In   |  Register Free
Airport Search:

Lonesome Pine Airport
(KLNP)

Lonesome Pine Airport Diagram
No Airport Diagram Available

FAA data valid effective July 24, 2014 until September 18, 2014 (unless otherwise noted).

 
 
 
 
 
 
 
 
 
 
 
 
 
 

Current Aviation Weather for Lonesome Pine Airport (KLNP)

The most recent METAR observation for KLNP was updated at: 1135 UTC
METAR Summary (Translated METAR)
KLNP
251135Z AUTO 00000KT 3/4SM BR OVC002 14/14 A3014 RMK AO2
KVJI
(29.9 nm SE from KLNP)
251135Z AUTO 13006KT 7SM SCT002 16/16 A3011 RMK AO2 T01620161
TAF Summary (Translated TAF)
KTRI
(31.3 nm SE from KLNP)
251125Z 2512/2612 VRB03KT P6SM SCT040 BKN250 FM260000 00000KT P6SM SCT250
  Airport Weather Conditions for KLNP

 Current Weather at LNP
59° F
Fog/Mist
North winds at 0.0 mph
LNP NOAA Radar

Pressure: 30.15 in
Humidity: 100%
Wind: Calm
Dew Point: 59.0°F
Visibility: 0.75 mi


Airport Weather Forecast for KLNP

Translated METAR and TAF for KLNP
Translated METAR for KLNP (1246 UTC 25 July 2014)
found at http://aviationweather.gov/adds/metars/
 
METAR text: KLNP 251235Z AUTO 00000KT 4SM BR OVC002 15/15 A3015 RMK AO2
Conditions at: KLNP (WISE/LONESOME PI, VA, US) observed 1235 UTC 25 July 2014
Temperature: 15.0°C (59°F)
Dewpoint: 15.0°C (59°F) [RH = 100%]
Pressure (altimeter): 30.15 inches Hg (1021.1 mb)
Winds: calm
Visibility: 4 miles (6 km)
Ceiling: 200 feet AGL
Clouds: overcast cloud deck at 200 feet AGL
Weather: BR  (mist)
Translated TAF for KLNP

There is no translated TAF available for this airport

Find All Airport Services Find A Hotel Find A Rental Car Find A Golf Course Find A Restaurant $100 Hamburger



FBO's on the Field
FBO Company Facility Photos Services Transportation Aviation Fuel Prices: Prices include tax
Catering Weather Repair Courtesy Rental Type 100LL JetA JetA+ MOGAS 8087
 
Lonesome Pine Airport

This FBO has not yet been rated
FS:Shell
Last Updated: Jul-10
Login to update fuel prices
SS:
Contact Lonesome Pine AirportMore FBO Information
 
Add another FBO Facility Photos Catering Weather Repair Courtesy Rental Type 100LL JetA JetA+ MOGAS 8087
Services Transportation Aviation Fuel Prices: Prices include tax


GlobalAir.com Airport Resource Center model-print
model-print
model-print
model-print